Time;durP1;ratioP1;P1;durP2;ratioP2;P2;SDS_P1;SDS_P2;PMS_P1;PMS_P2;Temp;Humidity;BMP_temperature;BMP_pressure;BME280_temperature;BME280_humidity;BME280_pressure;Samples;Min_cycle;Max_cycle;Signal;HPM_P1;HPM_P2
2022/04/17 00:00:16;;;;;;;8.57;2.13;;;;;;;;;;5062997;28;20376;-90
2022/04/17 00:02:51;;;;;;;6.57;1.55;;;;;;;;;;5055545;28;20029;-92
2022/04/17 00:05:24;;;;;;;8.38;1.88;;;;;;;;;;4703031;28;10000282;-91
2022/04/17 00:07:51;;;;;;;10.20;2.17;;;;;;;;;;5052111;28;20446;-92
2022/04/17 00:10:17;;;;;;;10.65;2.00;;;;;;;;;;5056104;28;20075;-92
2022/04/17 00:12:55;;;;;;;8.52;1.88;;;;;;;;;;5053765;28;20037;-91
2022/04/17 00:15:21;;;;;;;7.75;1.98;;;;;;;;;;5062752;28;20032;-91
2022/04/17 00:17:47;;;;;;;7.05;2.20;;;;;;;;;;5056949;28;20033;-89
2022/04/17 00:20:14;;;;;;;6.13;2.13;;;;;;;;;;5050677;28;20036;-90
2022/04/17 00:22:41;;;;;;;9.15;1.85;;;;;;;;;;5052770;28;20123;-90
2022/04/17 00:25:08;;;;;;;7.43;1.67;;;;;;;;;;5055702;28;20028;-90
2022/04/17 00:27:44;;;;;;;5.35;1.95;;;;;;;;;;5055384;28;20064;-90
2022/04/17 00:30:11;;;;;;;11.70;2.08;;;;;;;;;;5054846;28;20063;-90
2022/04/17 00:32:38;;;;;;;13.95;1.52;;;;;;;;;;4351395;28;10000739;-91
2022/04/17 00:35:05;;;;;;;8.57;1.35;;;;;;;;;;5055728;28;20059;-90
2022/04/17 00:37:32;;;;;;;11.40;1.45;;;;;;;;;;5055715;28;20079;-90
2022/04/17 00:40:29;;;;;;;7.03;1.60;;;;;;;;;;5056738;28;20082;-91
2022/04/17 00:42:58;;;;;;;6.93;1.35;;;;;;;;;;5050854;28;20040;-90
2022/04/17 00:45:24;;;;;;;8.98;1.42;;;;;;;;;;5049431;28;20036;-90
2022/04/17 00:47:57;;;;;;;7.60;1.17;;;;;;;;;;5048823;28;20056;-91
2022/04/17 00:50:24;;;;;;;6.22;1.45;;;;;;;;;;5067952;28;20111;-92
2022/04/17 00:52:55;;;;;;;7.93;1.17;;;;;;;;;;5054984;28;20035;-91
2022/04/17 00:55:21;;;;;;;8.63;1.55;;;;;;;;;;5055450;28;20071;-91
2022/04/17 00:57:49;;;;;;;6.05;0.90;;;;;;;;;;5054170;28;20067;-92
2022/04/17 01:00:18;;;;;;;7.85;0.95;;;;;;;;;;5055085;28;20086;-91
2022/04/17 01:02:50;;;;;;;10.80;1.27;;;;;;;;;;5050791;28;20041;-91
2022/04/17 01:05:18;;;;;;;6.47;1.65;;;;;;;;;;5053847;28;20036;-92
2022/04/17 01:07:49;;;;;;;11.98;1.35;;;;;;;;;;5053771;28;20033;-91
2022/04/17 01:10:16;;;;;;;11.15;1.50;;;;;;;;;;5057519;28;20032;-92
2022/04/17 01:12:47;;;;;;;7.72;1.73;;;;;;;;;;5054692;28;20035;-90
2022/04/17 01:15:18;;;;;;;5.03;0.98;;;;;;;;;;4705763;28;10000181;-90
2022/04/17 01:17:45;;;;;;;3.92;1.05;;;;;;;;;;5056306;28;20040;-91
2022/04/17 01:20:12;;;;;;;5.05;1.00;;;;;;;;;;5068907;28;20552;-91
2022/04/17 01:22:45;;;;;;;7.18;1.70;;;;;;;;;;5044588;28;20047;-91
2022/04/17 01:27:57;;;;;;;6.40;1.20;;;;;;;;;;5068195;28;20040;-92
2022/04/17 01:30:33;;;;;;;8.48;1.30;;;;;;;;;;5054348;28;20032;-92
2022/04/17 01:32:59;;;;;;;4.20;0.88;;;;;;;;;;5053980;28;20113;-92
2022/04/17 01:35:29;;;;;;;6.35;1.15;;;;;;;;;;5055077;28;20508;-91
2022/04/17 01:37:56;;;;;;;6.13;1.23;;;;;;;;;;5051406;28;20048;-92
2022/04/17 01:40:23;;;;;;;5.38;0.98;;;;;;;;;;5061264;28;20043;-92
2022/04/17 01:43:09;;;;;;;7.05;0.50;;;;;;;;;;5063622;28;20175;-92
2022/04/17 01:45:35;;;;;;;8.15;1.00;;;;;;;;;;5056833;28;20041;-92
2022/04/17 01:48:12;;;;;;;7.18;0.85;;;;;;;;;;5055715;28;20040;-90
2022/04/17 01:50:38;;;;;;;11.82;0.98;;;;;;;;;;5061096;28;20064;-91
2022/04/17 01:53:08;;;;;;;10.43;1.20;;;;;;;;;;5054682;28;20043;-90
2022/04/17 01:55:36;;;;;;;10.38;1.60;;;;;;;;;;5058909;28;20048;-89
2022/04/17 01:58:05;;;;;;;8.27;1.50;;;;;;;;;;5057706;28;20113;-91
2022/04/17 02:00:34;;;;;;;3.75;1.15;;;;;;;;;;5065487;28;20039;-90
2022/04/17 02:03:05;;;;;;;11.18;1.60;;;;;;;;;;5050861;28;20036;-92
2022/04/17 02:05:32;;;;;;;11.15;1.52;;;;;;;;;;5060640;28;20136;-91
2022/04/17 02:08:01;;;;;;;7.13;1.88;;;;;;;;;;5050348;28;20037;-92
2022/04/17 02:10:28;;;;;;;10.73;1.67;;;;;;;;;;5058494;28;20051;-91
2022/04/17 02:13:20;;;;;;;12.02;1.83;;;;;;;;;;5062185;28;20058;-94
2022/04/17 02:15:55;;;;;;;13.85;2.15;;;;;;;;;;5034964;28;20206;-91
2022/04/17 02:18:21;;;;;;;7.45;1.90;;;;;;;;;;5056908;28;20115;-93
2022/04/17 02:20:56;;;;;;;6.25;1.80;;;;;;;;;;5056589;28;20029;-91
2022/04/17 02:23:23;;;;;;;6.32;1.40;;;;;;;;;;5058202;28;20036;-91
2022/04/17 02:25:49;;;;;;;5.57;1.10;;;;;;;;;;5058526;28;20426;-92
2022/04/17 02:28:21;;;;;;;6.75;1.15;;;;;;;;;;5057862;28;20051;-91
2022/04/17 02:30:47;;;;;;;6.53;1.35;;;;;;;;;;5057199;28;20040;-93
2022/04/17 02:33:13;;;;;;;6.75;1.30;;;;;;;;;;5063746;28;20031;-93
2022/04/17 02:35:40;;;;;;;11.25;1.27;;;;;;;;;;4711112;28;9999903;-93
2022/04/17 02:38:06;;;;;;;6.00;1.00;;;;;;;;;;5057409;28;20044;-91
2022/04/17 02:40:51;;;;;;;6.63;1.05;;;;;;;;;;5057959;28;20064;-91
2022/04/17 02:43:17;;;;;;;6.40;1.52;;;;;;;;;;5058288;28;20091;-91
2022/04/17 02:45:44;;;;;;;9.10;1.20;;;;;;;;;;5063238;28;20075;-92
2022/04/17 02:48:10;;;;;;;8.30;1.60;;;;;;;;;;5065669;28;20032;-90
2022/04/17 02:50:39;;;;;;;7.45;1.58;;;;;;;;;;5058223;28;20443;-93
2022/04/17 02:53:07;;;;;;;9.93;1.60;;;;;;;;;;5058304;28;20032;-93
2022/04/17 02:55:33;;;;;;;15.55;1.50;;;;;;;;;;5061938;28;20509;-94
2022/04/17 02:58:11;;;;;;;9.52;1.80;;;;;;;;;;5058048;28;20081;-91
2022/04/17 03:05:36;;;;;;;8.90;2.15;;;;;;;;;;5045985;28;20037;-88
2022/04/17 03:06:10;;;;;;;10.75;2.75;;;;;;;;;;5069912;28;20082;-87
2022/04/17 03:08:41;;;;;;;18.55;3.78;;;;;;;;;;5055534;28;20028;-89
2022/04/17 03:11:17;;;;;;;23.30;4.30;;;;;;;;;;5054378;28;20028;-88
2022/04/17 03:13:44;;;;;;;19.60;3.45;;;;;;;;;;5054949;28;20040;-88
2022/04/17 03:16:13;;;;;;;12.90;3.17;;;;;;;;;;5049348;28;20470;-87
2022/04/17 03:18:39;;;;;;;16.77;3.30;;;;;;;;;;5056308;28;20119;-90
2022/04/17 03:21:06;;;;;;;14.20;3.47;;;;;;;;;;5047510;28;20068;-88
2022/04/17 03:23:32;;;;;;;14.05;3.83;;;;;;;;;;5056339;28;20036;-89
2022/04/17 03:26:04;;;;;;;16.90;4.75;;;;;;;;;;5055507;28;20048;-89
2022/04/17 03:28:30;;;;;;;12.55;3.70;;;;;;;;;;5053303;28;20032;-90
2022/04/17 03:30:59;;;;;;;12.60;3.20;;;;;;;;;;5048257;28;20843;-89
2022/04/17 03:33:27;;;;;;;16.73;2.88;;;;;;;;;;5045318;28;20434;-88
2022/04/17 03:35:54;;;;;;;14.05;3.70;;;;;;;;;;5054178;28;20039;-88
2022/04/17 03:38:21;;;;;;;18.02;2.92;;;;;;;;;;5054777;28;20060;-88
2022/04/17 03:40:47;;;;;;;11.80;2.08;;;;;;;;;;5049101;28;20035;-88
2022/04/17 03:43:17;;;;;;;12.52;2.70;;;;;;;;;;5048588;28;20491;-88
2022/04/17 03:45:47;;;;;;;16.20;2.53;;;;;;;;;;5054193;28;20036;-88
2022/04/17 03:48:17;;;;;;;12.55;1.80;;;;;;;;;;5050271;28;20047;-89
2022/04/17 03:50:43;;;;;;;9.63;2.30;;;;;;;;;;5053265;28;20060;-88
2022/04/17 03:53:12;;;;;;;15.90;2.42;;;;;;;;;;5054057;28;20048;-88
2022/04/17 03:55:38;;;;;;;10.75;2.17;;;;;;;;;;5054395;28;20036;-90
2022/04/17 03:58:06;;;;;;;13.38;2.95;;;;;;;;;;5056919;28;20047;-89
2022/04/17 04:00:32;;;;;;;12.88;3.10;;;;;;;;;;5054392;28;20123;-88
2022/04/17 04:03:01;;;;;;;10.13;2.80;;;;;;;;;;5052845;28;20033;-88
2022/04/17 04:05:31;;;;;;;13.80;2.78;;;;;;;;;;5065631;28;20119;-87
2022/04/17 04:08:00;;;;;;;11.60;2.78;;;;;;;;;;5051364;28;20025;-88
2022/04/17 04:10:32;;;;;;;8.75;2.58;;;;;;;;;;5053233;28;20032;-89
2022/04/17 04:12:59;;;;;;;7.80;2.40;;;;;;;;;;5054754;28;20062;-88
2022/04/17 04:15:25;;;;;;;20.50;3.17;;;;;;;;;;5055592;28;20063;-88
2022/04/17 04:17:57;;;;;;;11.48;3.25;;;;;;;;;;5069827;28;20032;-88
2022/04/17 04:20:24;;;;;;;14.35;2.72;;;;;;;;;;5051837;28;20423;-90
2022/04/17 04:22:54;;;;;;;14.50;2.38;;;;;;;;;;5051976;28;20091;-88
2022/04/17 04:25:20;;;;;;;15.10;2.28;;;;;;;;;;5054872;28;20123;-88
2022/04/17 04:30:33;;;;;;;13.15;2.58;;;;;;;;;;5067983;28;20047;-89
2022/04/17 04:33:00;;;;;;;12.43;2.38;;;;;;;;;;5050195;28;20035;-88
2022/04/17 04:35:29;;;;;;;10.45;2.05;;;;;;;;;;5055038;28;20037;-89
2022/04/17 04:38:00;;;;;;;15.75;3.47;;;;;;;;;;5055247;28;20043;-89
2022/04/17 04:40:28;;;;;;;14.10;3.72;;;;;;;;;;5061542;28;20035;-89
2022/04/17 04:43:03;;;;;;;12.60;2.70;;;;;;;;;;5061531;28;20047;-88
2022/04/17 04:49:29;;;;;;;9.50;3.45;;;;;;;;;;5073707;28;20460;-89
2022/04/17 04:51:07;;;;;;;6.47;2.95;;;;;;;;;;5058028;28;20491;-87
2022/04/17 04:53:34;;;;;;;9.30;2.50;;;;;;;;;;5052009;28;20029;-87
2022/04/17 04:56:01;;;;;;;10.68;3.22;;;;;;;;;;5053862;28;20033;-87
2022/04/17 04:58:57;;;;;;;10.40;2.80;;;;;;;;;;5053283;28;20051;-90
2022/04/17 05:01:23;;;;;;;10.18;2.60;;;;;;;;;;5044317;28;20033;-92
2022/04/17 05:04:05;;;;;;;11.18;1.98;;;;;;;;;;5064979;28;20055;-91
2022/04/17 05:06:32;;;;;;;11.57;1.90;;;;;;;;;;5053326;28;20033;-91
2022/04/17 05:09:15;;;;;;;12.18;2.10;;;;;;;;;;5041524;28;20383;-91
2022/04/17 05:11:42;;;;;;;11.38;1.98;;;;;;;;;;5063978;28;20025;-92
2022/04/17 05:14:12;;;;;;;17.20;2.58;;;;;;;;;;5058886;28;20040;-92
2022/04/17 05:16:42;;;;;;;11.55;2.10;;;;;;;;;;5057910;28;20032;-91
2022/04/17 05:21:57;;;;;;;7.38;2.00;;;;;;;;;;5069939;28;20048;-91
2022/04/17 05:24:24;;;;;;;12.07;1.70;;;;;;;;;;5056292;28;20133;-90
2022/04/17 05:26:51;;;;;;;12.77;1.90;;;;;;;;;;5050888;28;20025;-90
2022/04/17 05:29:18;;;;;;;10.93;1.90;;;;;;;;;;5053839;28;20040;-89
2022/04/17 05:31:48;;;;;;;8.35;1.55;;;;;;;;;;5057254;28;20041;-88
2022/04/17 05:34:15;;;;;;;7.60;1.58;;;;;;;;;;5057966;28;20391;-91
2022/04/17 05:36:42;;;;;;;13.00;1.83;;;;;;;;;;5055851;28;20118;-88
2022/04/17 05:39:08;;;;;;;12.70;1.95;;;;;;;;;;5052405;28;20499;-89
2022/04/17 05:41:35;;;;;;;9.20;1.65;;;;;;;;;;5056298;28;20040;-91
2022/04/17 05:44:07;;;;;;;10.77;1.73;;;;;;;;;;5054917;28;20028;-90
2022/04/17 05:46:37;;;;;;;12.82;1.80;;;;;;;;;;5056016;28;20060;-91
2022/04/17 05:49:04;;;;;;;8.15;1.70;;;;;;;;;;5057695;28;20060;-90
2022/04/17 05:51:34;;;;;;;6.55;1.23;;;;;;;;;;5034201;28;20084;-94
2022/04/17 05:54:01;;;;;;;5.22;1.42;;;;;;;;;;5064999;28;20033;-92
2022/04/17 05:56:28;;;;;;;8.52;1.88;;;;;;;;;;5044579;28;20039;-91
2022/04/17 05:58:54;;;;;;;7.70;1.80;;;;;;;;;;5047876;28;20567;-90
2022/04/17 06:01:22;;;;;;;9.10;1.65;;;;;;;;;;5055861;28;20028;-91
2022/04/17 06:03:49;;;;;;;10.30;1.67;;;;;;;;;;5049711;28;20033;-92
2022/04/17 06:06:20;;;;;;;8.98;2.03;;;;;;;;;;5048398;28;20036;-92
2022/04/17 06:08:46;;;;;;;11.27;2.13;;;;;;;;;;5068456;28;20032;-91
2022/04/17 06:11:15;;;;;;;7.05;1.88;;;;;;;;;;5050968;28;20093;-93
2022/04/17 06:13:41;;;;;;;11.45;2.28;;;;;;;;;;4705565;28;10000205;-92
2022/04/17 06:16:22;;;;;;;12.65;2.60;;;;;;;;;;5060406;28;20043;-92
2022/04/17 06:18:51;;;;;;;11.45;2.03;;;;;;;;;;5037542;28;20048;-93
2022/04/17 06:21:18;;;;;;;10.20;2.00;;;;;;;;;;5053270;28;20041;-91
2022/04/17 06:23:44;;;;;;;11.98;2.15;;;;;;;;;;5048941;28;20258;-91
2022/04/17 06:26:10;;;;;;;10.30;2.08;;;;;;;;;;5040496;28;20041;-92
2022/04/17 06:28:38;;;;;;;5.93;1.50;;;;;;;;;;5038162;28;20056;-92
2022/04/17 06:31:07;;;;;;;6.55;1.73;;;;;;;;;;5048106;28;20082;-93
2022/04/17 06:33:33;;;;;;;16.10;1.65;;;;;;;;;;5045625;28;20268;-92
2022/04/17 06:35:59;;;;;;;6.20;1.08;;;;;;;;;;5056239;28;20036;-92
2022/04/17 06:38:28;;;;;;;12.93;1.63;;;;;;;;;;5054003;28;20041;-93
2022/04/17 06:40:54;;;;;;;12.50;1.65;;;;;;;;;;5053571;28;20481;-91
2022/04/17 06:43:20;;;;;;;9.70;2.13;;;;;;;;;;5066273;28;20036;-91
2022/04/17 06:45:46;;;;;;;5.70;1.48;;;;;;;;;;5055744;28;20045;-91
2022/04/17 06:48:13;;;;;;;8.63;1.50;;;;;;;;;;5055963;28;20033;-91
2022/04/17 06:50:39;;;;;;;6.95;1.77;;;;;;;;;;5054795;28;20130;-93
2022/04/17 06:53:06;;;;;;;9.82;1.45;;;;;;;;;;5048610;28;20037;-91
2022/04/17 06:55:33;;;;;;;8.13;1.02;;;;;;;;;;5049233;28;20033;-91
2022/04/17 06:57:59;;;;;;;11.02;1.65;;;;;;;;;;5053791;28;20024;-91
2022/04/17 07:00:26;;;;;;;8.75;1.52;;;;;;;;;;5043319;28;20032;-91
2022/04/17 07:02:52;;;;;;;6.63;1.05;;;;;;;;;;5054370;28;20102;-91
2022/04/17 07:05:19;;;;;;;5.72;1.20;;;;;;;;;;5047612;28;20032;-90
2022/04/17 07:07:45;;;;;;;7.90;1.13;;;;;;;;;;5047736;28;20059;-90
2022/04/17 07:10:12;;;;;;;7.80;0.70;;;;;;;;;;5046943;28;20029;-91
2022/04/17 07:12:39;;;;;;;8.07;1.20;;;;;;;;;;5045274;28;20028;-91
2022/04/17 07:15:06;;;;;;;6.85;1.17;;;;;;;;;;5053348;28;20033;-91
2022/04/17 07:17:34;;;;;;;6.45;1.50;;;;;;;;;;5071113;28;20029;-91
2022/04/17 07:20:00;;;;;;;7.28;1.73;;;;;;;;;;5055505;28;20036;-93
2022/04/17 07:22:27;;;;;;;8.75;1.45;;;;;;;;;;5051773;28;20100;-91
2022/04/17 07:24:54;;;;;;;6.72;1.45;;;;;;;;;;5055476;28;20123;-91
2022/04/17 07:27:21;;;;;;;6.68;0.82;;;;;;;;;;5054073;28;20495;-92
2022/04/17 07:29:48;;;;;;;10.63;1.48;;;;;;;;;;5047043;28;20119;-90
2022/04/17 07:32:14;;;;;;;8.82;1.70;;;;;;;;;;5058436;28;20430;-91
2022/04/17 07:34:40;;;;;;;7.55;1.02;;;;;;;;;;5062913;28;20047;-91
2022/04/17 07:37:06;;;;;;;8.05;1.30;;;;;;;;;;5050949;28;20432;-91
2022/04/17 07:39:33;;;;;;;9.65;1.33;;;;;;;;;;5053137;28;20418;-89
2022/04/17 07:41:59;;;;;;;12.30;2.05;;;;;;;;;;5050893;28;20392;-91
2022/04/17 07:44:29;;;;;;;7.15;1.20;;;;;;;;;;5044418;28;20044;-91
2022/04/17 07:46:56;;;;;;;6.43;1.38;;;;;;;;;;5053655;28;20119;-91
2022/04/17 07:49:26;;;;;;;6.40;1.15;;;;;;;;;;5055136;28;20024;-90
2022/04/17 07:51:52;;;;;;;5.25;1.08;;;;;;;;;;5071078;28;20096;-90
2022/04/17 07:54:19;;;;;;;7.78;1.60;;;;;;;;;;5055029;28;20037;-91
2022/04/17 07:56:45;;;;;;;9.18;1.40;;;;;;;;;;5070406;28;20039;-90
2022/04/17 07:59:12;;;;;;;10.30;2.05;;;;;;;;;;5048622;28;20041;-91
2022/04/17 08:01:40;;;;;;;9.35;1.80;;;;;;;;;;5065246;28;20035;-91
2022/04/17 08:04:06;;;;;;;11.43;1.80;;;;;;;;;;5051454;28;20032;-90
2022/04/17 08:06:33;;;;;;;14.07;1.92;;;;;;;;;;5053783;28;20498;-91
2022/04/17 08:09:00;;;;;;;9.23;2.15;;;;;;;;;;5048781;28;20033;-90
2022/04/17 08:11:28;;;;;;;15.32;2.42;;;;;;;;;;5055913;28;20131;-90
2022/04/17 08:13:54;;;;;;;10.23;3.30;;;;;;;;;;5069167;28;20064;-89
2022/04/17 08:16:21;;;;;;;16.55;3.60;;;;;;;;;;5052045;28;20024;-90
2022/04/17 08:18:47;;;;;;;12.70;3.50;;;;;;;;;;5052800;28;20044;-90
2022/04/17 08:21:13;;;;;;;21.75;4.07;;;;;;;;;;5033939;28;20102;-89
2022/04/17 08:23:41;;;;;;;20.48;4.45;;;;;;;;;;5050907;28;20511;-89
2022/04/17 08:26:07;;;;;;;18.27;3.72;;;;;;;;;;5050821;28;20110;-91
2022/04/17 08:28:33;;;;;;;18.17;4.20;;;;;;;;;;5053758;28;20039;-91
2022/04/17 08:31:01;;;;;;;21.30;5.68;;;;;;;;;;5041427;28;20546;-90
2022/04/17 08:33:28;;;;;;;19.38;6.95;;;;;;;;;;5046937;28;20043;-90
2022/04/17 08:35:55;;;;;;;21.95;7.32;;;;;;;;;;5064351;28;20472;-90
2022/04/17 08:38:22;;;;;;;26.10;10.10;;;;;;;;;;5046508;28;20047;-91
2022/04/17 08:40:49;;;;;;;20.75;10.15;;;;;;;;;;5041584;28;20047;-90
2022/04/17 08:43:18;;;;;;;20.80;8.13;;;;;;;;;;5057377;28;20087;-90
2022/04/17 08:45:44;;;;;;;19.80;7.35;;;;;;;;;;5036443;28;20432;-91
2022/04/17 08:48:10;;;;;;;23.85;6.85;;;;;;;;;;5050488;28;20052;-90
2022/04/17 08:50:37;;;;;;;17.45;5.82;;;;;;;;;;5052625;28;20046;-91
2022/04/17 08:53:05;;;;;;;10.00;3.83;;;;;;;;;;5053287;28;20396;-90
2022/04/17 08:55:32;;;;;;;11.80;4.25;;;;;;;;;;5051147;28;20035;-90
2022/04/17 08:57:58;;;;;;;15.25;3.88;;;;;;;;;;5050903;28;20032;-92
2022/04/17 09:00:24;;;;;;;13.18;3.05;;;;;;;;;;5051254;28;20113;-91
2022/04/17 09:02:51;;;;;;;10.30;3.15;;;;;;;;;;5049724;28;20127;-90
2022/04/17 09:05:20;;;;;;;16.60;3.10;;;;;;;;;;5048846;28;20041;-89
2022/04/17 09:07:47;;;;;;;13.35;3.30;;;;;;;;;;5047982;28;20024;-90
2022/04/17 09:10:34;;;;;;;12.50;2.95;;;;;;;;;;5065638;28;20041;-90
2022/04/17 09:13:01;;;;;;;11.13;2.55;;;;;;;;;;5045376;28;20112;-91
2022/04/17 09:15:29;;;;;;;9.85;2.22;;;;;;;;;;5050186;28;20029;-90
2022/04/17 09:17:56;;;;;;;14.70;3.45;;;;;;;;;;5052234;28;20056;-90
2022/04/17 09:20:24;;;;;;;11.57;2.90;;;;;;;;;;5068302;28;20042;-90
2022/04/17 09:22:51;;;;;;;16.38;3.00;;;;;;;;;;5050356;28;20115;-89
2022/04/17 09:25:18;;;;;;;17.23;3.80;;;;;;;;;;5049910;28;20399;-91
2022/04/17 09:27:56;;;;;;;11.93;3.17;;;;;;;;;;5049158;28;20128;-90
2022/04/17 09:30:28;;;;;;;13.13;3.28;;;;;;;;;;5050411;28;20116;-90
2022/04/17 09:32:55;;;;;;;18.63;3.22;;;;;;;;;;5059772;28;20393;-92
2022/04/17 09:35:25;;;;;;;14.90;4.10;;;;;;;;;;5052877;28;20036;-90
2022/04/17 09:38:01;;;;;;;12.50;2.83;;;;;;;;;;5052104;28;20120;-90
2022/04/17 09:40:29;;;;;;;12.30;2.75;;;;;;;;;;5044135;28;20044;-90
2022/04/17 09:43:08;;;;;;;11.35;2.63;;;;;;;;;;5050810;28;20510;-90
2022/04/17 09:45:34;;;;;;;19.67;3.25;;;;;;;;;;5047568;28;20099;-92
2022/04/17 09:48:00;;;;;;;15.80;3.47;;;;;;;;;;5049895;28;20035;-90
2022/04/17 09:50:32;;;;;;;17.20;3.42;;;;;;;;;;5046578;28;20033;-90
2022/04/17 09:52:59;;;;;;;7.72;2.90;;;;;;;;;;5049366;28;20032;-90
2022/04/17 09:55:29;;;;;;;11.13;2.75;;;;;;;;;;5047163;28;20063;-91
2022/04/17 09:57:59;;;;;;;12.18;2.65;;;;;;;;;;5055117;28;20032;-90
2022/04/17 10:00:26;;;;;;;14.75;2.47;;;;;;;;;;5047185;28;20064;-90
2022/04/17 10:02:52;;;;;;;13.20;2.83;;;;;;;;;;5055060;28;20614;-90
2022/04/17 10:05:20;;;;;;;9.15;2.67;;;;;;;;;;5044529;28;20036;-90
2022/04/17 10:07:48;;;;;;;10.15;2.67;;;;;;;;;;5074037;28;20024;-90
2022/04/17 10:10:15;;;;;;;10.52;2.75;;;;;;;;;;5051591;28;20040;-89
2022/04/17 10:12:42;;;;;;;12.60;2.13;;;;;;;;;;5064723;28;20036;-91
2022/04/17 10:15:10;;;;;;;12.20;2.53;;;;;;;;;;5071967;28;20029;-91
2022/04/17 10:17:38;;;;;;;11.45;3.58;;;;;;;;;;5052597;28;20059;-90
2022/04/17 10:20:12;;;;;;;11.18;2.80;;;;;;;;;;5052489;28;20049;-90
2022/04/17 10:22:39;;;;;;;11.10;2.50;;;;;;;;;;5049670;28;20120;-91
2022/04/17 10:25:06;;;;;;;11.45;2.30;;;;;;;;;;5049347;28;20131;-91
2022/04/17 10:27:51;;;;;;;13.07;2.90;;;;;;;;;;5055194;28;20403;-91
2022/04/17 10:30:19;;;;;;;9.60;2.88;;;;;;;;;;5055602;28;20615;-90
2022/04/17 10:33:04;;;;;;;13.40;2.90;;;;;;;;;;5056160;28;20395;-91
2022/04/17 10:35:42;;;;;;;17.90;3.53;;;;;;;;;;5052948;28;20029;-91
2022/04/17 10:38:25;;;;;;;14.93;3.00;;;;;;;;;;5049761;28;20514;-91
2022/04/17 10:40:59;;;;;;;17.70;2.70;;;;;;;;;;5042202;28;20093;-91
2022/04/17 10:43:32;;;;;;;16.17;3.35;;;;;;;;;;5050196;28;20051;-91
2022/04/17 10:46:08;;;;;;;12.02;3.08;;;;;;;;;;5053415;28;20441;-91
2022/04/17 10:48:42;;;;;;;18.48;3.30;;;;;;;;;;5046310;28;20044;-91
2022/04/17 10:51:13;;;;;;;16.92;2.65;;;;;;;;;;5052943;28;20067;-91
2022/04/17 10:53:49;;;;;;;17.35;3.05;;;;;;;;;;5070625;28;20053;-91
2022/04/17 10:56:16;;;;;;;12.90;2.78;;;;;;;;;;5067307;28;20067;-91
2022/04/17 10:58:54;;;;;;;14.70;3.03;;;;;;;;;;5054711;28;20033;-91
2022/04/17 11:01:39;;;;;;;18.85;2.40;;;;;;;;;;5063263;28;20376;-92
2022/04/17 11:04:26;;;;;;;12.07;2.20;;;;;;;;;;5052756;28;20044;-91
2022/04/17 11:07:04;;;;;;;10.82;2.42;;;;;;;;;;5051321;28;20115;-90
2022/04/17 11:09:33;;;;;;;10.17;2.87;;;;;;;;;;4711453;28;10001347;-91
2022/04/17 11:12:14;;;;;;;9.70;2.67;;;;;;;;;;5050842;28;20391;-91
2022/04/17 11:14:52;;;;;;;9.57;2.50;;;;;;;;;;5061182;28;20066;-91
2022/04/17 11:17:21;;;;;;;10.43;2.90;;;;;;;;;;5049691;28;20036;-91
2022/04/17 11:19:48;;;;;;;13.25;2.50;;;;;;;;;;5058446;28;20044;-90
2022/04/17 11:22:16;;;;;;;15.85;2.42;;;;;;;;;;5063241;28;20036;-91
2022/04/17 11:24:55;;;;;;;12.98;2.53;;;;;;;;;;5050763;28;20135;-92
2022/04/17 11:27:40;;;;;;;11.77;2.58;;;;;;;;;;5068394;28;20033;-91
2022/04/17 11:30:17;;;;;;;7.78;2.10;;;;;;;;;;5055666;28;20036;-91
2022/04/17 11:32:43;;;;;;;8.55;2.30;;;;;;;;;;5053490;28;20037;-91
2022/04/17 11:35:28;;;;;;;11.43;2.90;;;;;;;;;;5053919;28;20040;-92
2022/04/17 11:38:12;;;;;;;11.98;2.70;;;;;;;;;;5051109;28;20059;-92
2022/04/17 11:40:41;;;;;;;12.85;2.40;;;;;;;;;;5062234;28;20052;-91
2022/04/17 11:43:09;;;;;;;10.70;2.65;;;;;;;;;;5049360;28;20036;-90
2022/04/17 11:45:35;;;;;;;16.45;2.78;;;;;;;;;;5056767;28;20068;-90
2022/04/17 11:48:07;;;;;;;13.38;3.08;;;;;;;;;;5060741;28;20167;-94
2022/04/17 11:50:33;;;;;;;8.00;2.83;;;;;;;;;;5065135;28;20037;-92
2022/04/17 11:52:59;;;;;;;8.45;2.20;;;;;;;;;;5044663;28;20384;-91
2022/04/17 11:55:31;;;;;;;7.88;1.67;;;;;;;;;;5070704;28;20060;-91
2022/04/17 11:57:58;;;;;;;5.53;1.50;;;;;;;;;;5048564;28;21241;-92
2022/04/17 12:00:25;;;;;;;9.55;2.53;;;;;;;;;;5052092;28;20131;-92
2022/04/17 12:02:55;;;;;;;8.25;1.58;;;;;;;;;;5048479;28;20037;-92
2022/04/17 12:05:22;;;;;;;7.43;1.45;;;;;;;;;;5060639;28;20531;-92
2022/04/17 12:07:56;;;;;;;7.28;2.00;;;;;;;;;;5053194;28;20039;-91
2022/04/17 12:10:23;;;;;;;7.45;1.75;;;;;;;;;;5055462;28;20036;-93
2022/04/17 12:12:49;;;;;;;11.68;1.90;;;;;;;;;;5055648;28;20510;-93
2022/04/17 12:15:16;;;;;;;9.95;2.20;;;;;;;;;;5052537;28;20055;-91
2022/04/17 12:17:43;;;;;;;10.02;2.83;;;;;;;;;;5054378;28;20120;-91
2022/04/17 12:20:14;;;;;;;15.90;3.55;;;;;;;;;;5050609;28;20032;-92
2022/04/17 12:22:41;;;;;;;7.72;2.67;;;;;;;;;;4699889;28;10000529;-93
2022/04/17 12:25:18;;;;;;;12.68;3.80;;;;;;;;;;5041290;28;20051;-91
2022/04/17 12:27:48;;;;;;;12.05;3.00;;;;;;;;;;5055342;28;20610;-92
2022/04/17 12:30:18;;;;;;;11.45;3.50;;;;;;;;;;5055064;28;20399;-92
2022/04/17 12:32:45;;;;;;;12.23;3.35;;;;;;;;;;5052616;28;20056;-91
2022/04/17 12:35:13;;;;;;;17.17;4.10;;;;;;;;;;5050324;28;20119;-92
2022/04/17 12:37:49;;;;;;;13.88;4.45;;;;;;;;;;5046743;28;20036;-91
2022/04/17 12:40:20;;;;;;;13.07;3.92;;;;;;;;;;5048870;28;20040;-92
2022/04/17 12:42:46;;;;;;;18.15;4.28;;;;;;;;;;5028262;28;20403;-94
2022/04/17 12:45:24;;;;;;;14.63;4.25;;;;;;;;;;5052785;28;20439;-93
2022/04/17 12:48:18;;;;;;;11.10;3.83;;;;;;;;;;5055437;28;20037;-92
2022/04/17 12:51:12;;;;;;;11.20;3.70;;;;;;;;;;5054868;28;20047;-91
2022/04/17 12:53:39;;;;;;;18.50;4.97;;;;;;;;;;5051364;28;20062;-93
2022/04/17 12:56:06;;;;;;;10.65;4.00;;;;;;;;;;5048691;28;20033;-91
2022/04/17 12:58:51;;;;;;;12.70;4.80;;;;;;;;;;5035049;28;20482;-92
2022/04/17 13:01:33;;;;;;;15.65;5.65;;;;;;;;;;5049539;28;20048;-91
2022/04/17 13:04:16;;;;;;;18.73;5.28;;;;;;;;;;5043167;28;20063;-94
2022/04/17 13:06:43;;;;;;;16.08;6.43;;;;;;;;;;5051387;28;20106;-92
2022/04/17 13:09:18;;;;;;;24.50;10.48;;;;;;;;;;5048413;28;20128;-91
2022/04/17 13:11:49;;;;;;;21.88;10.57;;;;;;;;;;5046669;28;20064;-91
2022/04/17 13:14:16;;;;;;;23.45;9.60;;;;;;;;;;5049047;28;20059;-90
2022/04/17 13:17:03;;;;;;;24.60;9.70;;;;;;;;;;5050091;28;20028;-91
2022/04/17 13:19:31;;;;;;;22.77;10.27;;;;;;;;;;5051387;28;20433;-90
2022/04/17 13:21:58;;;;;;;29.42;12.68;;;;;;;;;;5042663;28;20112;-91
2022/04/17 13:24:28;;;;;;;33.15;13.07;;;;;;;;;;5057074;28;20044;-92
2022/04/17 13:26:55;;;;;;;27.77;12.23;;;;;;;;;;5050470;28;20028;-92
2022/04/17 13:29:22;;;;;;;33.55;12.27;;;;;;;;;;5057668;28;20037;-91
2022/04/17 13:31:50;;;;;;;31.77;12.50;;;;;;;;;;5064067;28;20028;-91
2022/04/17 13:34:17;;;;;;;27.40;11.88;;;;;;;;;;5052424;28;20040;-90
2022/04/17 13:36:45;;;;;;;32.03;12.60;;;;;;;;;;5075101;28;20032;-92
2022/04/17 13:39:12;;;;;;;36.60;15.15;;;;;;;;;;5073170;28;20044;-91
2022/04/17 13:41:39;;;;;;;45.55;18.77;;;;;;;;;;5058248;28;20036;-91
2022/04/17 13:44:07;;;;;;;54.92;27.20;;;;;;;;;;5053403;28;20124;-89
2022/04/17 13:46:34;;;;;;;68.00;35.30;;;;;;;;;;5050784;28;20119;-89
2022/04/17 13:49:00;;;;;;;67.18;34.30;;;;;;;;;;5048445;28;20044;-89
2022/04/17 13:51:34;;;;;;;60.05;30.65;;;;;;;;;;5052885;28;20078;-88
2022/04/17 13:54:00;;;;;;;62.58;28.85;;;;;;;;;;5059983;28;20130;-90
2022/04/17 13:56:28;;;;;;;49.30;23.23;;;;;;;;;;5055028;28;20035;-89
2022/04/17 13:58:54;;;;;;;44.35;20.02;;;;;;;;;;5055683;28;20041;-89
2022/04/17 14:01:21;;;;;;;55.22;24.90;;;;;;;;;;5067414;28;20043;-89
2022/04/17 14:03:47;;;;;;;51.60;27.25;;;;;;;;;;5047736;28;20028;-88
2022/04/17 14:06:20;;;;;;;104.13;47.42;;;;;;;;;;5049278;28;20388;-89
2022/04/17 14:08:49;;;;;;;109.55;51.90;;;;;;;;;;5050487;28;20064;-89
2022/04/17 14:11:18;;;;;;;74.93;38.17;;;;;;;;;;5067134;28;20770;-88
2022/04/17 14:13:45;;;;;;;47.38;21.00;;;;;;;;;;5060193;28;20029;-89
2022/04/17 14:16:12;;;;;;;34.72;15.25;;;;;;;;;;5047046;28;20091;-89
2022/04/17 14:18:38;;;;;;;30.98;14.02;;;;;;;;;;5048840;28;20033;-89
2022/04/17 14:21:16;;;;;;;29.95;11.95;;;;;;;;;;5053642;28;20446;-89
2022/04/17 14:23:42;;;;;;;28.35;8.35;;;;;;;;;;5061026;28;20068;-89
2022/04/17 14:26:12;;;;;;;26.83;8.38;;;;;;;;;;5045988;28;20479;-87
2022/04/17 14:28:38;;;;;;;23.02;6.90;;;;;;;;;;4707452;28;10000177;-89
2022/04/17 14:31:07;;;;;;;21.88;6.70;;;;;;;;;;5053133;28;20025;-87
2022/04/17 14:33:34;;;;;;;33.03;7.72;;;;;;;;;;5053300;28;20102;-87
2022/04/17 14:36:00;;;;;;;20.58;7.88;;;;;;;;;;5043310;28;20087;-88
2022/04/17 14:38:27;;;;;;;32.45;9.80;;;;;;;;;;5043212;28;20407;-87
2022/04/17 14:40:54;;;;;;;22.60;10.00;;;;;;;;;;5051171;28;20043;-89
2022/04/17 14:43:23;;;;;;;23.05;9.63;;;;;;;;;;5055468;28;20029;-89
2022/04/17 14:45:50;;;;;;;30.90;9.98;;;;;;;;;;5041212;28;20088;-90
2022/04/17 14:48:18;;;;;;;34.33;10.40;;;;;;;;;;5045224;28;20041;-91
2022/04/17 14:50:44;;;;;;;27.92;9.27;;;;;;;;;;5043307;28;20025;-91
2022/04/17 14:53:12;;;;;;;34.95;10.55;;;;;;;;;;5056954;28;20041;-90
2022/04/17 14:55:39;;;;;;;19.52;7.50;;;;;;;;;;5055654;28;20028;-92
2022/04/17 14:58:23;;;;;;;25.50;8.18;;;;;;;;;;5054510;28;20067;-91
2022/04/17 15:00:50;;;;;;;19.80;7.45;;;;;;;;;;5041710;28;20036;-90